BAW9126 LIRA-LIMJ
Flight info
| Callsign | BAW9126 |
|---|---|
| Flight time | 0h 45m |
| Altitude | 32000 |
| Route | GILIO DCT ELB DCT BETEN DCT SPEZI/N0372F180 M729 IDONA |
| Aircraft | A319/M-SDE3FGIJ1KRWXY/LB1 |
Departure
| Time | 2026-04-25 12:07 |
|---|---|
| Airport | Ciampino–G. B. Pastine International Airport (LIRA) |
Arrival
| Time | 2026-04-25 12:53 |
|---|---|
| Airport | Genoa Cristoforo Colombo Airport (LIMJ) |
| Time | Latitude | Longitude | Altitude | Speed | Heading |
|---|---|---|---|---|---|
| 2026-04-25 11:36 | 41.79707 | 12.59192 | 406 ft | 0 kts | 322° |
| 2026-04-25 11:59 | 41.79686 | 12.59211 | 406 ft | 4 kts | 334° |
| 2026-04-25 11:59 | 41.79662 | 12.59220 | 406 ft | 4 kts | 13° |
| 2026-04-25 12:00 | 41.79648 | 12.59211 | 404 ft | 0 kts | 52° |
| 2026-04-25 12:02 | 41.79649 | 12.59212 | 406 ft | 1 kts | 52° |
| 2026-04-25 12:02 | 41.79659 | 12.59227 | 406 ft | 3 kts | 47° |
| 2026-04-25 12:03 | 41.79678 | 12.59258 | 405 ft | 5 kts | 52° |
| 2026-04-25 12:03 | 41.79711 | 12.59290 | 404 ft | 7 kts | 15° |
| 2026-04-25 12:03 | 41.79764 | 12.59299 | 403 ft | 9 kts | 6° |
| 2026-04-25 12:03 | 41.79800 | 12.59349 | 406 ft | 8 kts | 104° |
| 2026-04-25 12:04 | 41.79761 | 12.59398 | 404 ft | 8 kts | 142° |
| 2026-04-25 12:04 | 41.79702 | 12.59440 | 407 ft | 10 kts | 152° |
| 2026-04-25 12:04 | 41.79632 | 12.59486 | 407 ft | 13 kts | 160° |
| 2026-04-25 12:04 | 41.79550 | 12.59548 | 403 ft | 15 kts | 150° |
| 2026-04-25 12:05 | 41.79453 | 12.59614 | 405 ft | 16 kts | 153° |
| 2026-04-25 12:05 | 41.79346 | 12.59687 | 407 ft | 18 kts | 153° |
| 2026-04-25 12:05 | 41.79229 | 12.59774 | 403 ft | 18 kts | 137° |
| 2026-04-25 12:05 | 41.79168 | 12.59810 | 407 ft | 10 kts | 156° |
| 2026-04-25 12:06 | 41.79096 | 12.59859 | 406 ft | 12 kts | 148° |
| 2026-04-25 12:06 | 41.79031 | 12.59934 | 404 ft | 13 kts | 108° |
| 2026-04-25 12:06 | 41.79056 | 12.60028 | 410 ft | 7 kts | 61° |
| 2026-04-25 12:06 | 41.79072 | 12.60052 | 409 ft | 3 kts | 38° |
| 2026-04-25 12:07 | 41.79129 | 12.60034 | 411 ft | 27 kts | 328° |
| 2026-04-25 12:07 | 41.79499 | 12.59789 | 412 ft | 97 kts | 334° |
| 2026-04-25 12:07 | 41.80339 | 12.59199 | 468 ft | 156 kts | 330° |
| 2026-04-25 12:07 | 41.81262 | 12.58527 | 1160 ft | 148 kts | 328° |
| 2026-04-25 12:08 | 41.82187 | 12.57877 | 1794 ft | 152 kts | 330° |
| 2026-04-25 12:08 | 41.83172 | 12.57201 | 2137 ft | 172 kts | 331° |
| 2026-04-25 12:08 | 41.84337 | 12.56401 | 2488 ft | 198 kts | 332° |
| 2026-04-25 12:08 | 41.85626 | 12.55503 | 3087 ft | 215 kts | 328° |
| 2026-04-25 12:09 | 41.86693 | 12.54104 | 3889 ft | 221 kts | 301° |
| 2026-04-25 12:09 | 41.87313 | 12.52199 | 4826 ft | 224 kts | 291° |
| 2026-04-25 12:09 | 41.87886 | 12.50245 | 5733 ft | 227 kts | 291° |
| 2026-04-25 12:09 | 41.88158 | 12.48156 | 6611 ft | 232 kts | 268° |
| 2026-04-25 12:10 | 41.87786 | 12.45952 | 7157 ft | 256 kts | 247° |
| 2026-04-25 12:10 | 41.87026 | 12.43667 | 7710 ft | 277 kts | 246° |
| 2026-04-25 12:10 | 41.86219 | 12.41272 | 8536 ft | 285 kts | 245° |
| 2026-04-25 12:10 | 41.85397 | 12.38832 | 9429 ft | 290 kts | 246° |
| 2026-04-25 12:11 | 41.84565 | 12.36355 | 10277 ft | 296 kts | 246° |
| 2026-04-25 12:11 | 41.83690 | 12.33733 | 10644 ft | 320 kts | 246° |
| 2026-04-25 12:11 | 41.82750 | 12.30897 | 11067 ft | 338 kts | 246° |
| 2026-04-25 12:11 | 41.81792 | 12.28001 | 11774 ft | 344 kts | 246° |
| 2026-04-25 12:12 | 41.81054 | 12.24927 | 12550 ft | 348 kts | 259° |
| 2026-04-25 12:12 | 41.80849 | 12.21707 | 13287 ft | 351 kts | 272° |
| 2026-04-25 12:12 | 41.81177 | 12.18449 | 14027 ft | 354 kts | 282° |
| 2026-04-25 12:12 | 41.81672 | 12.15240 | 14737 ft | 357 kts | 282° |
| 2026-04-25 12:13 | 41.82174 | 12.11964 | 15439 ft | 361 kts | 282° |
| 2026-04-25 12:13 | 41.82678 | 12.08640 | 16098 ft | 365 kts | 281° |
| 2026-04-25 12:13 | 41.83182 | 12.05290 | 16752 ft | 369 kts | 281° |
| 2026-04-25 12:13 | 41.83692 | 12.01907 | 17414 ft | 372 kts | 281° |
| 2026-04-25 12:14 | 41.84209 | 11.98478 | 18039 ft | 376 kts | 281° |
| 2026-04-25 12:14 | 41.84722 | 11.95030 | 18663 ft | 379 kts | 281° |
| 2026-04-25 12:14 | 41.85238 | 11.91544 | 19288 ft | 383 kts | 281° |
| 2026-04-25 12:14 | 41.85758 | 11.88024 | 19901 ft | 386 kts | 281° |
| 2026-04-25 12:15 | 41.86286 | 11.84450 | 20498 ft | 390 kts | 281° |
| 2026-04-25 12:15 | 41.86814 | 11.80888 | 21084 ft | 393 kts | 281° |
| 2026-04-25 12:15 | 41.87352 | 11.77257 | 21639 ft | 397 kts | 281° |
| 2026-04-25 12:15 | 41.87891 | 11.73616 | 22175 ft | 400 kts | 281° |
| 2026-04-25 12:16 | 41.88435 | 11.69940 | 22700 ft | 404 kts | 281° |
| 2026-04-25 12:16 | 41.88986 | 11.66216 | 23210 ft | 407 kts | 281° |
| 2026-04-25 12:16 | 41.89677 | 11.62532 | 23681 ft | 410 kts | 289° |
| 2026-04-25 12:16 | 41.90850 | 11.59016 | 24155 ft | 414 kts | 299° |
| 2026-04-25 12:17 | 41.92482 | 11.55827 | 24616 ft | 417 kts | 310° |
| 2026-04-25 12:17 | 41.94454 | 11.52969 | 25061 ft | 420 kts | 313° |
| 2026-04-25 12:17 | 41.96478 | 11.50114 | 25496 ft | 423 kts | 313° |
| 2026-04-25 12:17 | 41.98512 | 11.47242 | 25925 ft | 426 kts | 313° |
| 2026-04-25 12:18 | 42.00564 | 11.44339 | 26340 ft | 429 kts | 313° |
| 2026-04-25 12:18 | 42.02624 | 11.41417 | 26777 ft | 431 kts | 313° |
| 2026-04-25 12:18 | 42.04664 | 11.38517 | 27209 ft | 433 kts | 313° |
| 2026-04-25 12:18 | 42.06738 | 11.35563 | 27606 ft | 435 kts | 313° |
| 2026-04-25 12:19 | 42.10240 | 11.30566 | 28259 ft | 440 kts | 313° |
| 2026-04-25 12:19 | 42.13024 | 11.26584 | 28764 ft | 443 kts | 313° |
| 2026-04-25 12:19 | 42.15137 | 11.23566 | 29134 ft | 445 kts | 313° |
| 2026-04-25 12:20 | 42.17277 | 11.20509 | 29494 ft | 448 kts | 313° |
| 2026-04-25 12:20 | 42.19419 | 11.17448 | 29828 ft | 450 kts | 313° |
| 2026-04-25 12:20 | 42.21573 | 11.14362 | 30188 ft | 452 kts | 313° |
| 2026-04-25 12:20 | 42.23722 | 11.11278 | 30512 ft | 454 kts | 313° |
| 2026-04-25 12:21 | 42.25894 | 11.08156 | 30826 ft | 457 kts | 313° |
| 2026-04-25 12:21 | 42.28066 | 11.05028 | 31123 ft | 459 kts | 313° |
| 2026-04-25 12:21 | 42.30261 | 11.01864 | 31405 ft | 462 kts | 313° |
| 2026-04-25 12:21 | 42.32455 | 10.98700 | 31739 ft | 462 kts | 313° |
| 2026-04-25 12:22 | 42.34657 | 10.95524 | 32055 ft | 462 kts | 313° |
| 2026-04-25 12:22 | 42.38969 | 10.89291 | 32136 ft | 443 kts | 313° |
| 2026-04-25 12:23 | 42.43147 | 10.83245 | 32141 ft | 437 kts | 313° |
| 2026-04-25 12:23 | 42.47277 | 10.77261 | 32127 ft | 437 kts | 313° |
| 2026-04-25 12:24 | 42.51425 | 10.71231 | 32134 ft | 436 kts | 313° |
| 2026-04-25 12:24 | 42.55566 | 10.65207 | 32120 ft | 436 kts | 313° |
| 2026-04-25 12:25 | 42.59700 | 10.59185 | 32125 ft | 436 kts | 313° |
| 2026-04-25 12:25 | 42.63836 | 10.53146 | 32125 ft | 436 kts | 313° |
| 2026-04-25 12:26 | 42.67951 | 10.47108 | 32120 ft | 436 kts | 312° |
| 2026-04-25 12:26 | 42.72104 | 10.41129 | 32127 ft | 436 kts | 317° |
| 2026-04-25 12:27 | 42.77112 | 10.36535 | 32130 ft | 435 kts | 331° |
| 2026-04-25 12:27 | 42.82428 | 10.32555 | 32122 ft | 435 kts | 331° |
| 2026-04-25 12:28 | 42.87695 | 10.28570 | 32129 ft | 435 kts | 330° |
| 2026-04-25 12:28 | 42.92994 | 10.24563 | 31869 ft | 436 kts | 330° |
| 2026-04-25 12:28 | 42.95647 | 10.22557 | 31614 ft | 435 kts | 330° |
| 2026-04-25 12:29 | 42.98290 | 10.20552 | 31366 ft | 435 kts | 330° |
| 2026-04-25 12:29 | 43.00936 | 10.18541 | 31117 ft | 435 kts | 330° |
| 2026-04-25 12:29 | 43.03580 | 10.16533 | 30864 ft | 435 kts | 330° |
| 2026-04-25 12:29 | 43.06231 | 10.14518 | 30616 ft | 435 kts | 330° |
| 2026-04-25 12:30 | 43.08871 | 10.12509 | 30361 ft | 434 kts | 330° |
| 2026-04-25 12:30 | 43.11502 | 10.10502 | 29858 ft | 431 kts | 330° |
| 2026-04-25 12:30 | 43.14105 | 10.08514 | 29292 ft | 428 kts | 330° |
| 2026-04-25 12:30 | 43.16701 | 10.06530 | 28738 ft | 425 kts | 330° |
| 2026-04-25 12:31 | 43.19247 | 10.04582 | 28192 ft | 421 kts | 330° |
| 2026-04-25 12:31 | 43.21806 | 10.02627 | 27656 ft | 418 kts | 330° |
| 2026-04-25 12:31 | 43.24351 | 10.00683 | 27099 ft | 414 kts | 330° |
| 2026-04-25 12:31 | 43.26859 | 9.98767 | 26567 ft | 411 kts | 329° |
| 2026-04-25 12:32 | 43.29340 | 9.96869 | 26039 ft | 407 kts | 329° |
| 2026-04-25 12:32 | 43.31807 | 9.94977 | 25553 ft | 403 kts | 329° |
| 2026-04-25 12:32 | 43.34236 | 9.93108 | 25059 ft | 400 kts | 329° |
| 2026-04-25 12:32 | 43.36653 | 9.91245 | 24569 ft | 396 kts | 329° |
| 2026-04-25 12:33 | 43.39056 | 9.89394 | 24110 ft | 393 kts | 329° |
| 2026-04-25 12:33 | 43.41433 | 9.87566 | 23651 ft | 390 kts | 329° |
| 2026-04-25 12:33 | 43.43796 | 9.85749 | 23207 ft | 387 kts | 328° |
| 2026-04-25 12:33 | 43.46136 | 9.83945 | 22767 ft | 383 kts | 328° |
| 2026-04-25 12:34 | 43.48447 | 9.82160 | 22310 ft | 379 kts | 328° |
| 2026-04-25 12:34 | 43.50705 | 9.80411 | 21868 ft | 375 kts | 328° |
| 2026-04-25 12:34 | 43.52977 | 9.78652 | 21399 ft | 372 kts | 328° |
| 2026-04-25 12:34 | 43.54465 | 9.77499 | 21095 ft | 369 kts | 328° |
| 2026-04-25 12:35 | 43.57447 | 9.75187 | 20456 ft | 365 kts | 328° |
| 2026-04-25 12:35 | 43.59648 | 9.73475 | 19982 ft | 362 kts | 328° |
| 2026-04-25 12:35 | 43.61838 | 9.71770 | 19492 ft | 360 kts | 328° |
| 2026-04-25 12:35 | 43.64016 | 9.70075 | 19005 ft | 357 kts | 328° |
| 2026-04-25 12:36 | 43.66173 | 9.68400 | 18517 ft | 355 kts | 328° |
| 2026-04-25 12:36 | 43.68322 | 9.66735 | 18026 ft | 353 kts | 328° |
| 2026-04-25 12:36 | 43.70457 | 9.65076 | 17539 ft | 351 kts | 328° |
| 2026-04-25 12:36 | 43.72463 | 9.63294 | 17279 ft | 340 kts | 317° |
| 2026-04-25 12:37 | 43.74028 | 9.60892 | 17211 ft | 332 kts | 305° |
| 2026-04-25 12:37 | 43.75441 | 9.58343 | 17135 ft | 333 kts | 305° |
| 2026-04-25 12:37 | 43.76826 | 9.55830 | 17064 ft | 333 kts | 305° |
| 2026-04-25 12:37 | 43.78220 | 9.53290 | 16991 ft | 332 kts | 305° |
| 2026-04-25 12:38 | 43.79617 | 9.50734 | 16920 ft | 332 kts | 305° |
| 2026-04-25 12:38 | 43.81003 | 9.48188 | 16857 ft | 331 kts | 305° |
| 2026-04-25 12:38 | 43.82391 | 9.45635 | 16783 ft | 331 kts | 305° |
| 2026-04-25 12:38 | 43.83775 | 9.43097 | 16709 ft | 331 kts | 305° |
| 2026-04-25 12:39 | 43.85163 | 9.40553 | 16635 ft | 330 kts | 305° |
| 2026-04-25 12:39 | 43.86546 | 9.38020 | 16564 ft | 330 kts | 305° |
| 2026-04-25 12:39 | 43.87929 | 9.35483 | 16489 ft | 329 kts | 305° |
| 2026-04-25 12:39 | 43.89306 | 9.32952 | 16417 ft | 329 kts | 305° |
| 2026-04-25 12:40 | 43.90687 | 9.30408 | 16346 ft | 329 kts | 305° |
| 2026-04-25 12:40 | 43.92041 | 9.27906 | 16276 ft | 328 kts | 305° |
| 2026-04-25 12:40 | 43.93418 | 9.25367 | 16059 ft | 328 kts | 305° |
| 2026-04-25 12:40 | 43.94787 | 9.22845 | 15625 ft | 327 kts | 305° |
| 2026-04-25 12:41 | 43.96151 | 9.20331 | 15162 ft | 326 kts | 305° |
| 2026-04-25 12:41 | 43.97508 | 9.17826 | 14711 ft | 324 kts | 306° |
| 2026-04-25 12:41 | 43.98864 | 9.15321 | 14243 ft | 323 kts | 306° |
| 2026-04-25 12:41 | 44.00212 | 9.12830 | 13777 ft | 322 kts | 306° |
| 2026-04-25 12:42 | 44.01552 | 9.10344 | 13323 ft | 320 kts | 306° |
| 2026-04-25 12:42 | 44.01984 | 9.09542 | 13175 ft | 319 kts | 306° |
| 2026-04-25 12:42 | 44.04204 | 9.05420 | 12396 ft | 316 kts | 306° |
| 2026-04-25 12:42 | 44.05504 | 9.03005 | 11960 ft | 315 kts | 306° |
| 2026-04-25 12:43 | 44.06826 | 9.00548 | 11515 ft | 313 kts | 306° |
| 2026-04-25 12:43 | 44.08112 | 8.98158 | 11077 ft | 311 kts | 306° |
| 2026-04-25 12:43 | 44.10677 | 8.93380 | 10401 ft | 301 kts | 306° |
| 2026-04-25 12:44 | 44.11910 | 8.91081 | 10167 ft | 293 kts | 306° |
| 2026-04-25 12:44 | 44.13120 | 8.88821 | 10089 ft | 290 kts | 306° |
| 2026-04-25 12:44 | 44.15543 | 8.84280 | 9403 ft | 297 kts | 306° |
| 2026-04-25 12:45 | 44.16761 | 8.81991 | 9113 ft | 292 kts | 306° |
| 2026-04-25 12:45 | 44.17960 | 8.79743 | 8577 ft | 288 kts | 306° |
| 2026-04-25 12:45 | 44.20346 | 8.75280 | 7459 ft | 284 kts | 306° |
| 2026-04-25 12:46 | 44.21517 | 8.73082 | 6868 ft | 281 kts | 305° |
| 2026-04-25 12:46 | 44.22678 | 8.70896 | 6263 ft | 279 kts | 305° |
| 2026-04-25 12:46 | 44.23832 | 8.68721 | 5676 ft | 277 kts | 305° |
| 2026-04-25 12:46 | 44.24948 | 8.66623 | 5436 ft | 262 kts | 305° |
| 2026-04-25 12:47 | 44.25997 | 8.64653 | 5307 ft | 244 kts | 304° |
| 2026-04-25 12:47 | 44.26972 | 8.62822 | 5200 ft | 226 kts | 304° |
| 2026-04-25 12:47 | 44.27581 | 8.61676 | 5134 ft | 220 kts | 305° |
| 2026-04-25 12:47 | 44.28705 | 8.60264 | 5045 ft | 219 kts | 331° |
| 2026-04-25 12:48 | 44.30705 | 8.59698 | 4699 ft | 224 kts | 7° |
| 2026-04-25 12:48 | 44.32195 | 8.60208 | 4345 ft | 225 kts | 15° |
| 2026-04-25 12:48 | 44.33708 | 8.60798 | 3990 ft | 225 kts | 19° |
| 2026-04-25 12:48 | 44.35043 | 8.61856 | 3717 ft | 218 kts | 40° |
| 2026-04-25 12:49 | 44.35742 | 8.62890 | 3418 ft | 216 kts | 55° |
| 2026-04-25 12:49 | 44.36502 | 8.64677 | 2966 ft | 214 kts | 62° |
| 2026-04-25 12:49 | 44.37461 | 8.67019 | 2585 ft | 203 kts | 62° |
| 2026-04-25 12:49 | 44.37908 | 8.68136 | 2466 ft | 194 kts | 63° |
| 2026-04-25 12:50 | 44.38529 | 8.69714 | 2278 ft | 176 kts | 62° |
| 2026-04-25 12:50 | 44.39106 | 8.71066 | 2169 ft | 151 kts | 57° |
| 2026-04-25 12:50 | 44.39718 | 8.72202 | 1882 ft | 144 kts | 51° |
| 2026-04-25 12:50 | 44.40355 | 8.73238 | 1577 ft | 138 kts | 55° |
| 2026-04-25 12:51 | 44.40813 | 8.74375 | 1310 ft | 133 kts | 63° |
| 2026-04-25 12:51 | 44.41278 | 8.75486 | 1095 ft | 131 kts | 62° |
| 2026-04-25 12:51 | 44.41706 | 8.76609 | 949 ft | 130 kts | 70° |
| 2026-04-25 12:51 | 44.42065 | 8.77774 | 734 ft | 130 kts | 73° |
| 2026-04-25 12:52 | 44.42131 | 8.79017 | 595 ft | 128 kts | 95° |
| 2026-04-25 12:52 | 44.41993 | 8.80238 | 364 ft | 126 kts | 107° |
| 2026-04-25 12:52 | 44.41716 | 8.81388 | 119 ft | 124 kts | 102° |
| 2026-04-25 12:52 | 44.41516 | 8.82542 | 40 ft | 125 kts | 107° |
| 2026-04-25 12:53 | 44.41306 | 8.83625 | 21 ft | 95 kts | 106° |
| 2026-04-25 12:53 | 44.41183 | 8.84258 | 24 ft | 40 kts | 104° |
| 2026-04-25 12:53 | 44.41104 | 8.84649 | 20 ft | 41 kts | 106° |
| 2026-04-25 12:53 | 44.41168 | 8.84887 | 20 ft | 23 kts | 26° |
| 2026-04-25 12:54 | 44.41235 | 8.84914 | 20 ft | 9 kts | 18° |
| 2026-04-25 12:54 | 44.41264 | 8.84927 | 22 ft | 1 kts | 17° |
| 2026-04-25 12:54 | 44.41282 | 8.84935 | 20 ft | 4 kts | 17° |
| 2026-04-25 12:54 | 44.41319 | 8.84945 | 20 ft | 7 kts | 4° |
| 2026-04-25 12:55 | 44.41355 | 8.84911 | 21 ft | 5 kts | 343° |
| 2026-04-25 12:55 | 44.41373 | 8.84936 | 22 ft | 6 kts | 62° |
| 2026-04-25 12:55 | 44.41380 | 8.84952 | 20 ft | 2 kts | 58° |
| 2026-04-25 12:55 | 44.41394 | 8.84978 | 20 ft | 4 kts | 50° |
| 2026-04-25 12:56 | 44.41399 | 8.84993 | 20 ft | 2 kts | 68° |
| 2026-04-25 12:56 | 44.41406 | 8.85013 | 20 ft | 0 kts | 62° |
| 2026-04-25 12:56 | 44.41413 | 8.85037 | 20 ft | 0 kts | 15° |